world map with PED marked

PED - Airport

This information may not be accurate or current and is not valid for navigation or flight planning. No warranty of fitness for any purpose is made or implied.

flag of Pardubiceflag of Czech Republic

Donate via PayPal

Additional information is available on the NEW Great Circle Mapper

Location
City:  Pardubice, Pardubice, Czech Republic
Name:Pardubice Airport
ICAO / IATA:LKPD / PED

Details
Type:Airport (Aerodrome, Airfield)
Use:Public/Civil, Military
Latitude:50°00'48"N (50.013419)
Longitude:15°44'19"E (15.738647)
Datum:WGS 1984
Elevation:741 ft (226 m)
Runways:1
Longest:8203 × 246 ft (2500 × 75 m)

Time
Timezone:UTC+1 (DST+4)
Local Time:

Weather
METAR:LKPD  041400Z 26008KT 9999 FEW019 BKN040 02/M02 Q1030 RMK BLACK
TAF:LKPD  031900Z 0318/0418 CNL

Related Locations
Nearby:
Farthest:CHT: 11719 mi / 18859 km
Waitangi [Tuuta], CIT, NZ

Find:

   beyond  
but within

Other Information
Maps:
Links:
Sources:

  


 


Great Circle Mapper   Great Circle Mapper
Great Circle Mapper FAQ   Great Circle Mapper FAQ
  Karl's Home Page
KLSē   KLSē Home
   GC on Facebook
Airlines of the World   Airlines of the World
Donate via PayPal


Copyright © 2004-2019, Karl L. Swartz. All rights reserved.
All trademarks mentioned herein belong to their respective owners.

Please see credits for attribution and copyright information.

Karl Swartz <karl@kls2.com>
  Powered by FreeBSD
Valid HTML 4.01!
Labeled with ICRA
hCard Microformat
Geo Microformat